Bahawalpur Weather



Bahawalpur's Current Weather

Temprature 44.362o scattered clouds

scattered clouds

Rain: 0 %

Min Temprature44.362o
Max Temprature44.362o
Humidity17
Wind Speed3.82 m/h
Sun Rise05:15:21
Sun Set19:16:39
Current Time: 26-Jun-2019 15:13:55
Lat/Lon: 29.39, 71.66




Bahawalpur's Geo Location



Bahawalpur's Weather Forecast

Time Overall Temp Min Temp Max Temp Humidity Wind Speed Rain
26-Jun-2019 (Wed)
17:00:00 scattered clouds 38.850 38.850 38.850 24 9.66 m/h 0 %
20:00:00 broken clouds 39.050 39.047 39.050 22 4.53 m/h 0 %
23:00:00 scattered clouds 38.240 38.240 38.240 22 3.1 m/h 0 %
27-Jun-2019 (Thu)
02:00:00 clear sky 37.180 37.179 37.180 25 4.79 m/h 0 %
05:00:00 clear sky 35.665 35.665 35.665 37 5.53 m/h 0 %
08:00:00 clear sky 37.950 37.950 37.950 31 7.05 m/h 0 %
11:00:00 clear sky 44.674 44.674 44.674 18 6.85 m/h 0 %
14:00:00 clear sky 46.650 46.650 46.650 13 5.86 m/h 0 %
17:00:00 scattered clouds 44.380 44.380 44.380 13 2.21 m/h 0 %
20:00:00 overcast clouds 41.494 41.494 41.494 17 5.88 m/h 0 %
23:00:00 broken clouds 39.235 39.235 39.235 23 5.79 m/h 0 %
28-Jun-2019 (Fri)
02:00:00 clear sky 36.728 36.728 36.728 29 8.48 m/h 0 %
05:00:00 clear sky 33.028 33.028 33.028 46 6.86 m/h 0 %
08:00:00 clear sky 33.489 33.489 33.489 46 6.69 m/h 0 %
11:00:00 clear sky 40.125 40.125 40.125 29 6.41 m/h 0 %
14:00:00 clear sky 44.331 44.331 44.331 18 5.21 m/h 0 %
17:00:00 clear sky 45.050 45.050 45.050 15 5.16 m/h 0 %
20:00:00 clear sky 41.450 41.450 41.450 19 4.49 m/h 0 %
23:00:00 clear sky 39.472 39.472 39.472 22 5.47 m/h 0 %
29-Jun-2019 (Sat)
02:00:00 clear sky 36.472 36.472 36.472 34 7.62 m/h 0 %
05:00:00 clear sky 32.409 32.409 32.409 50 8.17 m/h 0 %
08:00:00 clear sky 32.787 32.787 32.787 51 7.83 m/h 0 %
11:00:00 clear sky 39.450 39.450 39.450 31 7.26 m/h 0 %
14:00:00 clear sky 45.450 45.450 45.450 14 6.32 m/h 0 %
17:00:00 clear sky 45.291 45.291 45.291 12 5.71 m/h 0 %
20:00:00 clear sky 41.450 41.450 41.450 17 4.69 m/h 0 %
23:00:00 clear sky 39.350 39.350 39.350 22 6.19 m/h 0 %
30-Jun-2019 (Sun)
02:00:00 clear sky 36.606 36.606 36.606 37 8.74 m/h 0 %
05:00:00 clear sky 32.602 32.602 32.602 55 7.83 m/h 0 %
08:00:00 clear sky 34.162 34.162 34.162 46 8.28 m/h 0 %
11:00:00 clear sky 40.718 40.718 40.718 26 7.67 m/h 0 %
14:00:00 clear sky 45.509 45.509 45.509 15 5.93 m/h 0 %
17:00:00 clear sky 45.650 45.650 45.650 13 5.33 m/h 0 %
20:00:00 clear sky 41.750 41.750 41.750 16 4.5 m/h 0 %
23:00:00 clear sky 39.650 39.650 39.650 20 5.64 m/h 0 %
01-Jul-2019 (Mon)
02:00:00 clear sky 36.350 36.350 36.350 44 8.44 m/h 0 %
05:00:00 clear sky 32.135 32.135 32.135 57 9.1 m/h 0 %
08:00:00 clear sky 33.850 33.850 33.850 49 8.13 m/h 0 %
11:00:00 clear sky 40.250 40.250 40.250 31 7.67 m/h 0 %
14:00:00 clear sky 45.450 45.450 45.450 17 6.44 m/h 0 %


Bahawalpur's Tourist Spots

Historical Places in Bahawalpur

Famous Cities (60)